createdAt,value
2019-04-11T19:49:52.993Z,10.90
2019-04-11T19:52:32.622Z,10.70
2019-04-11T19:55:22.071Z,10.70
2019-04-11T19:58:17.834Z,10.30
2019-04-11T20:00:57.568Z,10.10
2019-04-11T20:03:42.954Z,10.30
2019-04-11T20:06:31.667Z,10.40
2019-04-11T20:09:34.034Z,10.40
2019-04-11T20:12:14.676Z,10.30
2019-04-11T20:14:55.813Z,10.40
2019-04-11T20:17:44.495Z,10.60
2019-04-11T20:20:23.134Z,10.90
2019-04-11T20:23:12.485Z,11.00
2019-04-11T20:25:54.556Z,11.00
2019-04-11T20:28:54.996Z,11.00
2019-04-11T20:37:03.243Z,10.90
2019-04-11T20:39:46.761Z,10.50
2019-04-11T20:42:24.168Z,10.60
2019-04-11T20:45:08.288Z,10.70
2019-04-11T20:48:00.404Z,10.70
2019-04-11T20:50:43.476Z,10.80
2019-04-11T20:53:21.779Z,11.10
2019-04-11T20:56:23.693Z,10.80
2019-04-11T20:58:56.747Z,10.80
2019-04-11T21:01:34.812Z,11.10
2019-04-11T21:04:20.154Z,11.20
2019-04-11T21:07:01.731Z,11.10
2019-04-11T21:09:38.626Z,11.10
2019-04-11T21:12:22.697Z,11.00
2019-04-11T21:15:01.758Z,10.80
2019-04-11T21:17:47.852Z,10.90
2019-04-11T21:20:28.750Z,11.30
2019-04-11T21:23:24.714Z,10.90
2019-04-11T21:25:59.064Z,10.90
2019-04-11T21:28:58.664Z,11.10
2019-04-11T21:34:39.754Z,11.80
2019-04-11T21:45:37.839Z,10.80
2019-04-11T21:48:29.575Z,10.80
2019-04-11T21:51:11.345Z,10.80
2019-04-11T21:53:55.183Z,10.90
2019-04-11T21:56:35.939Z,10.60
2019-04-11T21:59:20.011Z,10.50
2019-04-11T22:01:57.180Z,10.50
2019-04-11T22:04:44.865Z,10.60
2019-04-11T22:07:30.865Z,10.60
2019-04-11T22:10:19.761Z,10.60
2019-04-11T22:13:09.795Z,10.90
2019-04-11T22:15:49.270Z,11.10
2019-04-11T22:27:05.349Z,11.30
2019-04-11T22:30:00.589Z,11.20
2019-04-11T22:44:08.012Z,12.50
